N9GW MMMX-KHOU
Flight info
| Callsign | N9GW |
|---|---|
| Flight time | 1h 45m |
| Altitude | 41000 |
| Route | IKLAN2A IKLAN UT140 TAM J177 PSX TSHRT2 |
| Aircraft | C25C/M-SDE2E3FGHRWXY/LB1 |
Departure
| Time | 2026-05-04 20:59 |
|---|---|
| Airport | Mexico City Benito Juárez International Airport (MMMX) |
Arrival
| Time | 2026-05-04 22:45 |
|---|---|
| Airport | William P. Hobby Airport (KHOU) |
| Time | Latitude | Longitude | Altitude | Speed | Heading |
|---|---|---|---|---|---|
| 2026-05-04 20:48 | 19.42782 | -99.07691 | 7296 ft | 0 kts | 63° |
| 2026-05-04 20:54 | 19.42789 | -99.07683 | 7296 ft | 5 kts | 34° |
| 2026-05-04 20:54 | 19.42821 | -99.07688 | 7296 ft | 4 kts | 338° |
| 2026-05-04 20:54 | 19.42852 | -99.07712 | 7296 ft | 7 kts | 287° |
| 2026-05-04 20:54 | 19.42828 | -99.07788 | 7296 ft | 15 kts | 242° |
| 2026-05-04 20:55 | 19.42778 | -99.07877 | 7296 ft | 13 kts | 240° |
| 2026-05-04 20:55 | 19.42735 | -99.07958 | 7296 ft | 13 kts | 240° |
| 2026-05-04 20:55 | 19.42674 | -99.08066 | 7296 ft | 18 kts | 237° |
| 2026-05-04 20:55 | 19.42613 | -99.08177 | 7296 ft | 17 kts | 239° |
| 2026-05-04 20:56 | 19.42558 | -99.08273 | 7296 ft | 13 kts | 258° |
| 2026-05-04 20:56 | 19.42588 | -99.08318 | 7296 ft | 12 kts | 329° |
| 2026-05-04 20:56 | 19.42654 | -99.08358 | 7296 ft | 10 kts | 331° |
| 2026-05-04 20:56 | 19.42698 | -99.08384 | 7296 ft | 2 kts | 330° |
| 2026-05-04 20:57 | 19.42702 | -99.08386 | 7296 ft | 0 kts | 330° |
| 2026-05-04 20:58 | 19.42705 | -99.08389 | 7296 ft | 5 kts | 330° |
| 2026-05-04 20:58 | 19.42772 | -99.08415 | 7296 ft | 12 kts | 9° |
| 2026-05-04 20:58 | 19.42838 | -99.08335 | 7297 ft | 35 kts | 56° |
| 2026-05-04 20:58 | 19.43123 | -99.07838 | 7298 ft | 121 kts | 61° |
| 2026-05-04 20:59 | 19.43617 | -99.06865 | 7556 ft | 172 kts | 65° |
| 2026-05-04 20:59 | 19.44208 | -99.05648 | 8523 ft | 197 kts | 62° |
| 2026-05-04 20:59 | 19.45013 | -99.04376 | 9336 ft | 220 kts | 51° |
| 2026-05-04 20:59 | 19.45994 | -99.03025 | 9642 ft | 245 kts | 55° |
| 2026-05-04 21:00 | 19.46957 | -99.01413 | 10369 ft | 263 kts | 58° |
| 2026-05-04 21:00 | 19.47949 | -98.99702 | 11320 ft | 283 kts | 58° |
| 2026-05-04 21:00 | 19.48984 | -98.97915 | 12328 ft | 286 kts | 58° |
| 2026-05-04 21:00 | 19.49966 | -98.96062 | 13177 ft | 290 kts | 61° |
| 2026-05-04 21:01 | 19.51037 | -98.94236 | 14039 ft | 294 kts | 57° |
| 2026-05-04 21:01 | 19.52120 | -98.92387 | 14840 ft | 295 kts | 59° |
| 2026-05-04 21:01 | 19.53175 | -98.90510 | 15617 ft | 298 kts | 57° |
| 2026-05-04 21:01 | 19.54544 | -98.88845 | 16352 ft | 301 kts | 45° |
| 2026-05-04 21:02 | 19.55971 | -98.87214 | 17120 ft | 304 kts | 48° |
| 2026-05-04 21:02 | 19.57411 | -98.85547 | 17833 ft | 308 kts | 47° |
| 2026-05-04 21:02 | 19.58861 | -98.83867 | 18537 ft | 311 kts | 47° |
| 2026-05-04 21:02 | 19.60341 | -98.82168 | 19115 ft | 315 kts | 47° |
| 2026-05-04 21:03 | 19.61828 | -98.80445 | 19729 ft | 319 kts | 47° |
| 2026-05-04 21:03 | 19.63337 | -98.78708 | 20350 ft | 322 kts | 47° |
| 2026-05-04 21:03 | 19.64841 | -98.76965 | 20952 ft | 326 kts | 47° |
| 2026-05-04 21:03 | 19.66386 | -98.75186 | 21566 ft | 329 kts | 47° |
| 2026-05-04 21:04 | 19.67941 | -98.73382 | 22195 ft | 333 kts | 47° |
| 2026-05-04 21:04 | 19.69535 | -98.71581 | 22883 ft | 337 kts | 43° |
| 2026-05-04 21:04 | 19.71529 | -98.70301 | 23476 ft | 338 kts | 21° |
| 2026-05-04 21:04 | 19.73829 | -98.69776 | 23981 ft | 341 kts | 4° |
| 2026-05-04 21:05 | 19.76202 | -98.69637 | 24520 ft | 343 kts | 5° |
| 2026-05-04 21:05 | 19.78594 | -98.69463 | 25020 ft | 346 kts | 4° |
| 2026-05-04 21:05 | 19.81007 | -98.69309 | 25540 ft | 348 kts | 4° |
| 2026-05-04 21:05 | 19.83444 | -98.69149 | 25943 ft | 355 kts | 4° |
| 2026-05-04 21:06 | 19.85963 | -98.68974 | 25999 ft | 371 kts | 4° |
| 2026-05-04 21:06 | 19.88599 | -98.68798 | 25992 ft | 387 kts | 4° |
| 2026-05-04 21:06 | 19.91318 | -98.68612 | 26282 ft | 389 kts | 4° |
| 2026-05-04 21:06 | 19.93920 | -98.68447 | 27683 ft | 361 kts | 3° |
| 2026-05-04 21:07 | 19.96407 | -98.68535 | 28431 ft | 359 kts | 352° |
| 2026-05-04 21:07 | 19.98842 | -98.69175 | 28856 ft | 363 kts | 340° |
| 2026-05-04 21:07 | 20.01122 | -98.70296 | 29564 ft | 359 kts | 336° |
| 2026-05-04 21:07 | 20.03487 | -98.71106 | 30194 ft | 358 kts | 349° |
| 2026-05-04 21:08 | 20.05966 | -98.71395 | 30673 ft | 359 kts | 356° |
| 2026-05-04 21:08 | 20.08448 | -98.71355 | 31288 ft | 356 kts | 4° |
| 2026-05-04 21:08 | 20.10907 | -98.70980 | 31773 ft | 358 kts | 10° |
| 2026-05-04 21:08 | 20.13304 | -98.70280 | 32329 ft | 358 kts | 18° |
| 2026-05-04 21:09 | 20.15655 | -98.69369 | 32803 ft | 359 kts | 18° |
| 2026-05-04 21:09 | 20.18002 | -98.68481 | 33346 ft | 358 kts | 18° |
| 2026-05-04 21:09 | 20.20345 | -98.67582 | 33869 ft | 357 kts | 18° |
| 2026-05-04 21:09 | 20.22680 | -98.66680 | 34332 ft | 357 kts | 18° |
| 2026-05-04 21:10 | 20.25016 | -98.65785 | 34754 ft | 357 kts | 17° |
| 2026-05-04 21:10 | 20.27355 | -98.64886 | 35185 ft | 358 kts | 18° |
| 2026-05-04 21:10 | 20.29700 | -98.63986 | 35677 ft | 357 kts | 18° |
| 2026-05-04 21:10 | 20.32035 | -98.63088 | 36153 ft | 357 kts | 17° |
| 2026-05-04 21:11 | 20.34366 | -98.62190 | 36622 ft | 356 kts | 17° |
| 2026-05-04 21:11 | 20.36692 | -98.61298 | 37083 ft | 355 kts | 17° |
| 2026-05-04 21:11 | 20.38998 | -98.60352 | 37544 ft | 355 kts | 20° |
| 2026-05-04 21:11 | 20.41265 | -98.59298 | 37977 ft | 355 kts | 20° |
| 2026-05-04 21:12 | 20.43559 | -98.58339 | 38429 ft | 353 kts | 16° |
| 2026-05-04 21:12 | 20.45884 | -98.57510 | 38838 ft | 352 kts | 15° |
| 2026-05-04 21:12 | 20.48171 | -98.56669 | 39205 ft | 353 kts | 16° |
| 2026-05-04 21:12 | 20.50476 | -98.55767 | 39571 ft | 353 kts | 17° |
| 2026-05-04 21:13 | 20.52812 | -98.54852 | 39954 ft | 353 kts | 16° |
| 2026-05-04 21:13 | 20.55095 | -98.53978 | 40307 ft | 353 kts | 15° |
| 2026-05-04 21:13 | 20.57408 | -98.53096 | 40662 ft | 353 kts | 15° |
| 2026-05-04 21:13 | 20.59732 | -98.52201 | 40885 ft | 358 kts | 16° |
| 2026-05-04 21:14 | 20.64554 | -98.50349 | 40942 ft | 378 kts | 16° |
| 2026-05-04 21:14 | 20.69609 | -98.48395 | 40937 ft | 395 kts | 16° |
| 2026-05-04 21:15 | 20.74878 | -98.46368 | 40939 ft | 409 kts | 17° |
| 2026-05-04 21:15 | 20.80309 | -98.44271 | 40923 ft | 420 kts | 17° |
| 2026-05-04 21:16 | 20.85851 | -98.42130 | 40919 ft | 426 kts | 16° |
| 2026-05-04 21:16 | 20.91457 | -98.39965 | 40919 ft | 430 kts | 17° |
| 2026-05-04 21:17 | 20.97114 | -98.37778 | 40902 ft | 434 kts | 16° |
| 2026-05-04 21:17 | 21.02806 | -98.35577 | 40904 ft | 436 kts | 16° |
| 2026-05-04 21:18 | 21.08517 | -98.33365 | 40886 ft | 437 kts | 16° |
| 2026-05-04 21:18 | 21.14250 | -98.31142 | 40887 ft | 439 kts | 16° |
| 2026-05-04 21:19 | 21.19954 | -98.28929 | 40885 ft | 440 kts | 16° |
| 2026-05-04 21:19 | 21.25710 | -98.26695 | 40881 ft | 440 kts | 16° |
| 2026-05-04 21:20 | 21.31478 | -98.24455 | 40877 ft | 441 kts | 16° |
| 2026-05-04 21:20 | 21.37261 | -98.22207 | 40872 ft | 442 kts | 16° |
| 2026-05-04 21:21 | 21.43044 | -98.19956 | 40871 ft | 442 kts | 16° |
| 2026-05-04 21:21 | 21.48825 | -98.17703 | 40876 ft | 442 kts | 16° |
| 2026-05-04 21:22 | 21.54584 | -98.15458 | 40875 ft | 442 kts | 16° |
| 2026-05-04 21:22 | 21.60376 | -98.13198 | 40874 ft | 443 kts | 16° |
| 2026-05-04 21:23 | 21.66167 | -98.10938 | 40876 ft | 443 kts | 16° |
| 2026-05-04 21:23 | 21.71962 | -98.08674 | 40875 ft | 443 kts | 16° |
| 2026-05-04 21:24 | 21.77750 | -98.06411 | 40874 ft | 443 kts | 16° |
| 2026-05-04 21:24 | 21.83545 | -98.04142 | 40884 ft | 443 kts | 16° |
| 2026-05-04 21:25 | 21.89335 | -98.01872 | 40883 ft | 443 kts | 16° |
| 2026-05-04 21:25 | 21.95124 | -97.99601 | 40889 ft | 443 kts | 15° |
| 2026-05-04 21:26 | 22.00918 | -97.97327 | 40902 ft | 442 kts | 15° |
| 2026-05-04 21:26 | 22.06706 | -97.95054 | 40912 ft | 442 kts | 15° |
| 2026-05-04 21:27 | 22.12491 | -97.92781 | 40920 ft | 442 kts | 15° |
| 2026-05-04 21:27 | 22.18265 | -97.90509 | 40928 ft | 442 kts | 15° |
| 2026-05-04 21:28 | 22.24047 | -97.88231 | 40929 ft | 442 kts | 15° |
| 2026-05-04 21:28 | 22.29839 | -97.86043 | 40915 ft | 438 kts | 9° |
| 2026-05-04 21:29 | 22.35746 | -97.84761 | 40919 ft | 435 kts | 6° |
| 2026-05-04 21:29 | 22.41671 | -97.83386 | 40918 ft | 435 kts | 8° |
| 2026-05-04 21:30 | 22.47591 | -97.82035 | 40907 ft | 434 kts | 7° |
| 2026-05-04 21:30 | 22.53503 | -97.80684 | 40895 ft | 434 kts | 7° |
| 2026-05-04 21:31 | 22.62367 | -97.78651 | 40905 ft | 434 kts | 7° |
| 2026-05-04 21:32 | 22.68272 | -97.77295 | 40900 ft | 433 kts | 7° |
| 2026-05-04 21:32 | 22.74172 | -97.75942 | 40901 ft | 433 kts | 7° |
| 2026-05-04 21:33 | 22.80067 | -97.74589 | 40899 ft | 433 kts | 7° |
| 2026-05-04 21:33 | 22.85959 | -97.73235 | 40907 ft | 433 kts | 7° |
| 2026-05-04 21:34 | 22.91854 | -97.71879 | 40902 ft | 433 kts | 7° |
| 2026-05-04 21:34 | 22.97742 | -97.70522 | 40916 ft | 433 kts | 7° |
| 2026-05-04 21:35 | 23.03631 | -97.69164 | 40914 ft | 432 kts | 7° |
| 2026-05-04 21:35 | 23.09523 | -97.67805 | 40915 ft | 432 kts | 6° |
| 2026-05-04 21:36 | 23.15366 | -97.66456 | 40912 ft | 432 kts | 6° |
| 2026-05-04 21:36 | 23.21252 | -97.65099 | 40910 ft | 432 kts | 6° |
| 2026-05-04 21:37 | 23.27140 | -97.63770 | 40914 ft | 432 kts | 6° |
| 2026-05-04 21:37 | 23.33032 | -97.62427 | 40913 ft | 432 kts | 6° |
| 2026-05-04 21:38 | 23.38926 | -97.61086 | 40912 ft | 432 kts | 6° |
| 2026-05-04 21:38 | 23.44818 | -97.59742 | 40911 ft | 432 kts | 6° |
| 2026-05-04 21:39 | 23.50664 | -97.58408 | 40915 ft | 432 kts | 6° |
| 2026-05-04 21:39 | 23.56553 | -97.57062 | 40928 ft | 432 kts | 6° |
| 2026-05-04 21:40 | 23.62415 | -97.55720 | 40911 ft | 424 kts | 5° |
| 2026-05-04 21:40 | 23.68207 | -97.54400 | 40904 ft | 425 kts | 5° |
| 2026-05-04 21:41 | 23.74010 | -97.53071 | 40898 ft | 426 kts | 5° |
| 2026-05-04 21:41 | 23.79823 | -97.51740 | 40897 ft | 427 kts | 5° |
| 2026-05-04 21:42 | 23.84658 | -97.50631 | 40900 ft | 427 kts | 5° |
| 2026-05-04 21:42 | 23.91423 | -97.49076 | 40915 ft | 428 kts | 5° |
| 2026-05-04 21:43 | 23.96304 | -97.47955 | 40916 ft | 428 kts | 5° |
| 2026-05-04 21:43 | 24.02127 | -97.46615 | 40910 ft | 428 kts | 5° |
| 2026-05-04 21:44 | 24.07957 | -97.45273 | 40913 ft | 428 kts | 5° |
| 2026-05-04 21:44 | 24.13748 | -97.43939 | 40912 ft | 428 kts | 5° |
| 2026-05-04 21:45 | 24.19577 | -97.42596 | 40911 ft | 428 kts | 5° |
| 2026-05-04 21:45 | 24.25411 | -97.41249 | 40916 ft | 428 kts | 5° |
| 2026-05-04 21:46 | 24.31239 | -97.39902 | 40916 ft | 428 kts | 5° |
| 2026-05-04 21:46 | 24.37053 | -97.38439 | 40920 ft | 429 kts | 6° |
| 2026-05-04 21:47 | 24.42863 | -97.36944 | 40916 ft | 429 kts | 6° |
| 2026-05-04 21:47 | 24.48678 | -97.35438 | 40920 ft | 429 kts | 6° |
| 2026-05-04 21:48 | 24.54487 | -97.33972 | 40915 ft | 427 kts | 5° |
| 2026-05-04 21:48 | 24.60263 | -97.32620 | 40914 ft | 427 kts | 5° |
| 2026-05-04 21:49 | 24.66077 | -97.31234 | 40912 ft | 427 kts | 5° |
| 2026-05-04 21:49 | 24.71893 | -97.29861 | 40910 ft | 427 kts | 5° |
| 2026-05-04 21:50 | 24.77706 | -97.28481 | 40909 ft | 427 kts | 5° |
| 2026-05-04 21:50 | 24.83526 | -97.27102 | 40925 ft | 427 kts | 5° |
| 2026-05-04 21:51 | 24.89337 | -97.25723 | 40924 ft | 427 kts | 5° |
| 2026-05-04 21:51 | 24.95147 | -97.24342 | 40922 ft | 427 kts | 5° |
| 2026-05-04 21:52 | 25.00956 | -97.22959 | 40924 ft | 427 kts | 5° |
| 2026-05-04 21:52 | 25.06770 | -97.21576 | 40922 ft | 427 kts | 5° |
| 2026-05-04 21:53 | 25.12578 | -97.20192 | 40926 ft | 427 kts | 5° |
| 2026-05-04 21:53 | 25.18387 | -97.18809 | 40932 ft | 427 kts | 5° |
| 2026-05-04 21:54 | 25.24192 | -97.17424 | 40937 ft | 427 kts | 5° |
| 2026-05-04 21:54 | 25.29994 | -97.16039 | 40935 ft | 426 kts | 5° |
| 2026-05-04 21:55 | 25.35790 | -97.14653 | 40934 ft | 426 kts | 5° |
| 2026-05-04 21:55 | 25.41586 | -97.13265 | 40929 ft | 426 kts | 5° |
| 2026-05-04 21:56 | 25.47379 | -97.11877 | 40954 ft | 426 kts | 5° |
| 2026-05-04 21:56 | 25.53166 | -97.10489 | 40941 ft | 425 kts | 5° |
| 2026-05-04 21:57 | 25.58903 | -97.09172 | 40934 ft | 423 kts | 3° |
| 2026-05-04 21:57 | 25.64671 | -97.07920 | 40937 ft | 422 kts | 4° |
| 2026-05-04 21:58 | 25.70430 | -97.06622 | 40937 ft | 422 kts | 4° |
| 2026-05-04 21:58 | 25.76181 | -97.05347 | 40935 ft | 421 kts | 4° |
| 2026-05-04 21:59 | 25.81936 | -97.04059 | 40940 ft | 422 kts | 4° |
| 2026-05-04 21:59 | 25.87690 | -97.02775 | 40937 ft | 421 kts | 4° |
| 2026-05-04 22:00 | 25.93435 | -97.01490 | 40934 ft | 421 kts | 4° |
| 2026-05-04 22:00 | 25.99179 | -97.00206 | 40933 ft | 420 kts | 3° |
| 2026-05-04 22:01 | 26.04911 | -96.98814 | 40936 ft | 421 kts | 5° |
| 2026-05-04 22:01 | 26.10636 | -96.97420 | 40945 ft | 421 kts | 4° |
| 2026-05-04 22:02 | 26.16333 | -96.96017 | 40938 ft | 421 kts | 4° |
| 2026-05-04 22:02 | 26.22060 | -96.94611 | 40936 ft | 421 kts | 4° |
| 2026-05-04 22:03 | 26.27785 | -96.93203 | 40934 ft | 421 kts | 4° |
| 2026-05-04 22:03 | 26.33509 | -96.91795 | 40933 ft | 421 kts | 4° |
| 2026-05-04 22:04 | 26.39236 | -96.90385 | 40931 ft | 421 kts | 4° |
| 2026-05-04 22:04 | 26.44972 | -96.88971 | 40935 ft | 423 kts | 4° |
| 2026-05-04 22:05 | 26.50736 | -96.87546 | 40927 ft | 425 kts | 4° |
| 2026-05-04 22:05 | 26.56474 | -96.86126 | 40926 ft | 426 kts | 4° |
| 2026-05-04 22:06 | 26.62265 | -96.84693 | 40930 ft | 426 kts | 4° |
| 2026-05-04 22:06 | 26.68063 | -96.83258 | 40940 ft | 427 kts | 4° |
| 2026-05-04 22:07 | 26.73872 | -96.81818 | 40940 ft | 428 kts | 4° |
| 2026-05-04 22:07 | 26.79693 | -96.80374 | 40940 ft | 428 kts | 4° |
| 2026-05-04 22:08 | 26.85515 | -96.78927 | 40942 ft | 429 kts | 4° |
| 2026-05-04 22:08 | 26.91336 | -96.77478 | 40941 ft | 429 kts | 4° |
| 2026-05-04 22:09 | 26.97163 | -96.76026 | 40937 ft | 429 kts | 4° |
| 2026-05-04 22:09 | 27.02999 | -96.74572 | 40940 ft | 430 kts | 3° |
| 2026-05-04 22:10 | 27.08841 | -96.73115 | 40941 ft | 430 kts | 3° |
| 2026-05-04 22:10 | 27.14687 | -96.71656 | 40939 ft | 430 kts | 3° |
| 2026-05-04 22:11 | 27.20529 | -96.70195 | 40936 ft | 431 kts | 3° |
| 2026-05-04 22:11 | 27.26338 | -96.68740 | 40937 ft | 431 kts | 3° |
| 2026-05-04 22:12 | 27.32190 | -96.67273 | 40954 ft | 431 kts | 3° |
| 2026-05-04 22:12 | 27.38048 | -96.65803 | 40943 ft | 431 kts | 3° |
| 2026-05-04 22:13 | 27.43904 | -96.64332 | 40942 ft | 431 kts | 3° |
| 2026-05-04 22:13 | 27.49762 | -96.62860 | 40940 ft | 431 kts | 3° |
| 2026-05-04 22:14 | 27.55618 | -96.61387 | 40936 ft | 431 kts | 3° |
| 2026-05-04 22:14 | 27.61432 | -96.59923 | 40934 ft | 431 kts | 3° |
| 2026-05-04 22:15 | 27.67281 | -96.58447 | 40936 ft | 431 kts | 3° |
| 2026-05-04 22:15 | 27.73130 | -96.56969 | 40934 ft | 431 kts | 3° |
| 2026-05-04 22:16 | 27.78971 | -96.55491 | 40930 ft | 431 kts | 3° |
| 2026-05-04 22:16 | 27.84822 | -96.54011 | 40933 ft | 430 kts | 3° |
| 2026-05-04 22:16 | 27.87765 | -96.53269 | 40603 ft | 436 kts | 3° |
| 2026-05-04 22:17 | 27.90670 | -96.52524 | 40046 ft | 426 kts | 3° |
| 2026-05-04 22:17 | 27.93559 | -96.51795 | 39490 ft | 425 kts | 2° |
| 2026-05-04 22:17 | 27.96450 | -96.51064 | 38926 ft | 425 kts | 2° |
| 2026-05-04 22:17 | 27.99330 | -96.50334 | 38332 ft | 424 kts | 2° |
| 2026-05-04 22:18 | 28.02205 | -96.49832 | 37683 ft | 411 kts | 354° |
| 2026-05-04 22:18 | 28.05053 | -96.49532 | 37197 ft | 415 kts | 360° |
| 2026-05-04 22:18 | 28.07879 | -96.48785 | 36732 ft | 418 kts | 5° |
| 2026-05-04 22:18 | 28.10670 | -96.47864 | 36276 ft | 417 kts | 7° |
| 2026-05-04 22:19 | 28.13443 | -96.47009 | 35819 ft | 409 kts | 3° |
| 2026-05-04 22:19 | 28.16216 | -96.46367 | 35391 ft | 404 kts | 1° |
| 2026-05-04 22:19 | 28.18969 | -96.45719 | 34899 ft | 406 kts | 3° |
| 2026-05-04 22:19 | 28.21732 | -96.44977 | 34314 ft | 409 kts | 4° |
| 2026-05-04 22:20 | 28.24511 | -96.44216 | 33584 ft | 412 kts | 4° |
| 2026-05-04 22:20 | 28.27294 | -96.43498 | 32867 ft | 420 kts | 4° |
| 2026-05-04 22:20 | 28.30215 | -96.42749 | 32308 ft | 428 kts | 4° |
| 2026-05-04 22:20 | 28.33141 | -96.41983 | 31738 ft | 435 kts | 5° |
| 2026-05-04 22:21 | 28.36108 | -96.41195 | 31158 ft | 440 kts | 5° |
| 2026-05-04 22:21 | 28.39063 | -96.40420 | 30581 ft | 444 kts | 5° |
| 2026-05-04 22:21 | 28.42080 | -96.39631 | 29993 ft | 443 kts | 5° |
| 2026-05-04 22:21 | 28.45069 | -96.38845 | 29378 ft | 437 kts | 5° |
| 2026-05-04 22:22 | 28.48012 | -96.38070 | 28800 ft | 431 kts | 5° |
| 2026-05-04 22:22 | 28.50914 | -96.37312 | 28238 ft | 426 kts | 5° |
| 2026-05-04 22:22 | 28.53793 | -96.36558 | 27683 ft | 423 kts | 5° |
| 2026-05-04 22:22 | 28.56644 | -96.35810 | 27127 ft | 420 kts | 5° |
| 2026-05-04 22:23 | 28.59485 | -96.35062 | 26575 ft | 417 kts | 5° |
| 2026-05-04 22:23 | 28.62307 | -96.34322 | 26026 ft | 415 kts | 5° |
| 2026-05-04 22:23 | 28.65123 | -96.33580 | 25479 ft | 415 kts | 5° |
| 2026-05-04 22:23 | 28.67933 | -96.32843 | 24932 ft | 414 kts | 5° |
| 2026-05-04 22:24 | 28.70737 | -96.32102 | 24387 ft | 413 kts | 5° |
| 2026-05-04 22:24 | 28.73531 | -96.31367 | 23843 ft | 412 kts | 5° |
| 2026-05-04 22:24 | 28.76324 | -96.30623 | 23264 ft | 413 kts | 6° |
| 2026-05-04 22:24 | 28.79071 | -96.29577 | 22708 ft | 416 kts | 12° |
| 2026-05-04 22:25 | 28.81794 | -96.28508 | 22169 ft | 413 kts | 10° |
| 2026-05-04 22:25 | 28.84516 | -96.27479 | 21618 ft | 411 kts | 11° |
| 2026-05-04 22:25 | 28.87228 | -96.26442 | 21072 ft | 411 kts | 11° |
| 2026-05-04 22:25 | 28.89929 | -96.25387 | 20529 ft | 410 kts | 12° |
| 2026-05-04 22:26 | 28.92627 | -96.24336 | 19981 ft | 409 kts | 12° |
| 2026-05-04 22:26 | 28.95266 | -96.23315 | 19463 ft | 402 kts | 12° |
| 2026-05-04 22:26 | 28.97904 | -96.22295 | 18935 ft | 399 kts | 12° |
| 2026-05-04 22:26 | 29.00562 | -96.21267 | 18403 ft | 397 kts | 13° |
| 2026-05-04 22:27 | 29.03139 | -96.20266 | 17850 ft | 395 kts | 13° |
| 2026-05-04 22:27 | 29.05736 | -96.19257 | 17326 ft | 393 kts | 13° |
| 2026-05-04 22:27 | 29.08313 | -96.18255 | 16808 ft | 390 kts | 13° |
| 2026-05-04 22:27 | 29.10882 | -96.17259 | 16312 ft | 389 kts | 14° |
| 2026-05-04 22:28 | 29.13437 | -96.16264 | 15781 ft | 385 kts | 13° |
| 2026-05-04 22:28 | 29.15884 | -96.15306 | 15316 ft | 364 kts | 14° |
| 2026-05-04 22:28 | 29.18286 | -96.14380 | 14844 ft | 364 kts | 13° |
| 2026-05-04 22:28 | 29.20687 | -96.13453 | 14366 ft | 365 kts | 14° |
| 2026-05-04 22:29 | 29.23088 | -96.12514 | 13885 ft | 365 kts | 14° |
| 2026-05-04 22:29 | 29.25488 | -96.11576 | 13374 ft | 364 kts | 14° |
| 2026-05-04 22:29 | 29.27884 | -96.10641 | 12889 ft | 363 kts | 14° |
| 2026-05-04 22:29 | 29.30268 | -96.09714 | 12408 ft | 362 kts | 15° |
| 2026-05-04 22:30 | 29.32573 | -96.08559 | 12060 ft | 362 kts | 31° |
| 2026-05-04 22:30 | 29.34296 | -96.06686 | 12004 ft | 322 kts | 42° |
| 2026-05-04 22:30 | 29.35832 | -96.04997 | 11990 ft | 295 kts | 40° |
| 2026-05-04 22:30 | 29.36795 | -96.03870 | 11988 ft | 305 kts | 43° |
| 2026-05-04 22:31 | 29.38296 | -96.02069 | 11988 ft | 310 kts | 42° |
| 2026-05-04 22:31 | 29.39803 | -96.00314 | 11987 ft | 315 kts | 42° |
| 2026-05-04 22:31 | 29.41349 | -95.98508 | 11999 ft | 319 kts | 41° |
| 2026-05-04 22:31 | 29.42911 | -95.96695 | 11997 ft | 321 kts | 42° |
| 2026-05-04 22:32 | 29.44459 | -95.94873 | 11997 ft | 316 kts | 41° |
| 2026-05-04 22:32 | 29.45990 | -95.93091 | 11999 ft | 312 kts | 41° |
| 2026-05-04 22:32 | 29.47502 | -95.91314 | 11989 ft | 311 kts | 41° |
| 2026-05-04 22:32 | 29.49019 | -95.89554 | 11986 ft | 310 kts | 41° |
| 2026-05-04 22:33 | 29.50517 | -95.87783 | 11981 ft | 309 kts | 41° |
| 2026-05-04 22:33 | 29.52029 | -95.86035 | 11978 ft | 308 kts | 41° |
| 2026-05-04 22:33 | 29.53522 | -95.84268 | 11986 ft | 308 kts | 41° |
| 2026-05-04 22:33 | 29.54989 | -95.82471 | 11778 ft | 315 kts | 46° |
| 2026-05-04 22:34 | 29.56353 | -95.80513 | 11209 ft | 310 kts | 47° |
| 2026-05-04 22:34 | 29.57724 | -95.78647 | 10687 ft | 302 kts | 47° |
| 2026-05-04 22:34 | 29.59053 | -95.76812 | 10181 ft | 296 kts | 47° |
| 2026-05-04 22:34 | 29.60365 | -95.75015 | 9666 ft | 291 kts | 48° |
| 2026-05-04 22:35 | 29.61644 | -95.73233 | 9176 ft | 287 kts | 48° |
| 2026-05-04 22:35 | 29.62917 | -95.71487 | 8680 ft | 283 kts | 49° |
| 2026-05-04 22:35 | 29.64163 | -95.69753 | 8206 ft | 281 kts | 49° |
| 2026-05-04 22:35 | 29.65416 | -95.68032 | 7736 ft | 280 kts | 49° |
| 2026-05-04 22:36 | 29.66644 | -95.66321 | 7258 ft | 275 kts | 49° |
| 2026-05-04 22:36 | 29.67864 | -95.64644 | 6800 ft | 271 kts | 50° |
| 2026-05-04 22:36 | 29.69054 | -95.62986 | 6342 ft | 268 kts | 50° |
| 2026-05-04 22:36 | 29.70240 | -95.61354 | 5878 ft | 264 kts | 51° |
| 2026-05-04 22:37 | 29.71404 | -95.59731 | 5423 ft | 261 kts | 52° |
| 2026-05-04 22:37 | 29.72554 | -95.58147 | 4984 ft | 254 kts | 53° |
| 2026-05-04 22:37 | 29.73664 | -95.56600 | 4548 ft | 247 kts | 53° |
| 2026-05-04 22:37 | 29.74737 | -95.55117 | 4138 ft | 237 kts | 54° |
| 2026-05-04 22:38 | 29.75777 | -95.53676 | 3737 ft | 231 kts | 53° |
| 2026-05-04 22:38 | 29.76794 | -95.52259 | 3348 ft | 228 kts | 54° |
| 2026-05-04 22:38 | 29.77802 | -95.50866 | 2961 ft | 225 kts | 54° |
| 2026-05-04 22:38 | 29.78765 | -95.49519 | 2615 ft | 213 kts | 53° |
| 2026-05-04 22:39 | 29.79587 | -95.48166 | 2240 ft | 200 kts | 74° |
| 2026-05-04 22:39 | 29.79677 | -95.46610 | 2047 ft | 190 kts | 104° |
| 2026-05-04 22:39 | 29.79146 | -95.45308 | 2029 ft | 176 kts | 135° |
| 2026-05-04 22:39 | 29.78312 | -95.44280 | 2012 ft | 177 kts | 138° |
| 2026-05-04 22:40 | 29.77456 | -95.43276 | 2011 ft | 179 kts | 141° |
| 2026-05-04 22:40 | 29.76577 | -95.42256 | 2009 ft | 179 kts | 139° |
| 2026-05-04 22:40 | 29.75716 | -95.41239 | 2009 ft | 175 kts | 139° |
| 2026-05-04 22:40 | 29.74878 | -95.40237 | 2009 ft | 173 kts | 138° |
| 2026-05-04 22:41 | 29.74034 | -95.39235 | 2006 ft | 173 kts | 137° |
| 2026-05-04 22:41 | 29.73210 | -95.38237 | 2003 ft | 171 kts | 139° |
| 2026-05-04 22:41 | 29.72386 | -95.37259 | 2003 ft | 170 kts | 138° |
| 2026-05-04 22:41 | 29.71560 | -95.36285 | 1909 ft | 176 kts | 139° |
| 2026-05-04 22:42 | 29.70720 | -95.35255 | 1688 ft | 170 kts | 139° |
| 2026-05-04 22:42 | 29.69959 | -95.34345 | 1488 ft | 142 kts | 138° |
| 2026-05-04 22:42 | 29.69345 | -95.33606 | 1301 ft | 118 kts | 141° |
| 2026-05-04 22:42 | 29.68788 | -95.32946 | 1145 ft | 117 kts | 139° |
| 2026-05-04 22:43 | 29.68189 | -95.32252 | 994 ft | 126 kts | 141° |
| 2026-05-04 22:43 | 29.67592 | -95.31517 | 828 ft | 125 kts | 136° |
| 2026-05-04 22:43 | 29.66982 | -95.30809 | 666 ft | 123 kts | 135° |
| 2026-05-04 22:43 | 29.66411 | -95.30115 | 507 ft | 117 kts | 137° |
| 2026-05-04 22:44 | 29.65854 | -95.29456 | 356 ft | 112 kts | 130° |
| 2026-05-04 22:44 | 29.65342 | -95.28829 | 201 ft | 100 kts | 138° |
| 2026-05-04 22:44 | 29.64888 | -95.28311 | 55 ft | 85 kts | 136° |
| 2026-05-04 22:44 | 29.64534 | -95.27899 | 45 ft | 52 kts | 137° |
| 2026-05-04 22:45 | 29.64432 | -95.27745 | 45 ft | 8 kts | 85° |
| 2026-05-04 22:45 | 29.64554 | -95.27584 | 45 ft | 14 kts | 44° |
| 2026-05-04 22:45 | 29.64632 | -95.27498 | 45 ft | 17 kts | 43° |
| 2026-05-04 22:46 | 29.64705 | -95.27420 | 45 ft | 11 kts | 43° |
| 2026-05-04 22:46 | 29.64691 | -95.27371 | 45 ft | 7 kts | 197° |
| 2026-05-04 22:46 | 29.64669 | -95.27387 | 45 ft | 0 kts | 205° |
| 2026-05-04 22:46 | 29.64660 | -95.27382 | 45 ft | 3 kts | 127° |
| 2026-05-04 22:47 | 29.64657 | -95.27376 | 45 ft | 0 kts | 124° |